Treorchy, United Kingdom
Current Conditions -  °F | °C
As of 3:50 AM on Monday 26 Jan 2015 (Local Time) from EGDX Reporting Station
Moderate Rain Moderate Rain  
Wind Chill: 42°   Ceiling: 700
Heat Index: 48°   Visibility: 6mi
Dew Point: 46°   Wind: 17mph
Humidity: 93%   Direction: 250°WSW
Pressure: 30.21"   Gusts: NA
Location:  51.67°N, 3.53°W
Report Text: EGDX 260350Z AUTO 25015KT 9999 RA FEW004/// BKN007/// BKN019/// 09/08 Q1023
Loading
Personal Weather Stations






























Interactive Weather Map New forecast layout! Learn more

10-Day Weather Forecast

Advertisements
Track Severe Weather on mobile